sensor_id;sensor_type;location;lat;lon;timestamp;temperature;humidity
22442;DHT22;11388;54.456;9.752;2023-05-23T05:29:53;15.90;99.90
22442;DHT22;11388;54.456;9.752;2023-05-23T06:03:17;16.00;99.90
22442;DHT22;11388;54.456;9.752;2023-05-23T06:05:46;16.00;99.90
22442;DHT22;11388;54.456;9.752;2023-05-23T06:08:20;16.00;99.90
22442;DHT22;11388;54.456;9.752;2023-05-23T06:10:46;16.10;99.90
22442;DHT22;11388;54.456;9.752;2023-05-23T06:13:15;16.10;99.90
22442;DHT22;11388;54.456;9.752;2023-05-23T06:19:18;15.90;99.90
22442;DHT22;11388;54.456;9.752;2023-05-23T06:21:46;15.90;99.90
22442;DHT22;11388;54.456;9.752;2023-05-23T06:24:11;15.80;99.90
22442;DHT22;11388;54.456;9.752;2023-05-23T06:26:40;15.80;99.90
22442;DHT22;11388;54.456;9.752;2023-05-23T06:29:06;15.80;99.90
22442;DHT22;11388;54.456;9.752;2023-05-23T06:31:33;15.70;99.90
22442;DHT22;11388;54.456;9.752;2023-05-23T06:34:00;15.60;99.90
22442;DHT22;11388;54.456;9.752;2023-05-23T06:36:25;15.30;99.90
22442;DHT22;11388;54.456;9.752;2023-05-23T06:38:51;15.40;99.90
22442;DHT22;11388;54.456;9.752;2023-05-23T06:44:45;15.30;99.90
22442;DHT22;11388;54.456;9.752;2023-05-23T06:47:11;15.30;99.90
22442;DHT22;11388;54.456;9.752;2023-05-23T06:49:39;15.20;99.90
22442;DHT22;11388;54.456;9.752;2023-05-23T06:55:38;15.20;99.90
22442;DHT22;11388;54.456;9.752;2023-05-23T06:58:04;15.20;99.90
22442;DHT22;11388;54.456;9.752;2023-05-23T07:00:33;15.30;99.90
22442;DHT22;11388;54.456;9.752;2023-05-23T07:02:58;15.30;99.90
22442;DHT22;11388;54.456;9.752;2023-05-23T07:05:26;15.30;99.90
22442;DHT22;11388;54.456;9.752;2023-05-23T07:07:53;15.40;99.90
22442;DHT22;11388;54.456;9.752;2023-05-23T07:10:43;15.40;99.90
22442;DHT22;11388;54.456;9.752;2023-05-23T07:13:08;15.50;99.90
22442;DHT22;11388;54.456;9.752;2023-05-23T07:15:34;15.50;99.90
22442;DHT22;11388;54.456;9.752;2023-05-23T08:05:56;14.30;99.90
22442;DHT22;11388;54.456;9.752;2023-05-23T08:09:22;14.30;99.90
22442;DHT22;11388;54.456;9.752;2023-05-23T08:15:10;14.20;99.90
22442;DHT22;11388;54.456;9.752;2023-05-23T08:18:07;14.10;99.90
22442;DHT22;11388;54.456;9.752;2023-05-23T08:30:33;14.00;99.90
22442;DHT22;11388;54.456;9.752;2023-05-23T08:36:21;14.00;99.90
22442;DHT22;11388;54.456;9.752;2023-05-23T08:44:07;14.20;99.90
22442;DHT22;11388;54.456;9.752;2023-05-23T14:42:07;15.80;99.90
22442;DHT22;11388;54.456;9.752;2023-05-23T15:23:16;15.10;99.90
22442;DHT22;11388;54.456;9.752;2023-05-23T15:32:41;15.00;99.90
22442;DHT22;11388;54.456;9.752;2023-05-23T15:35:19;15.00;99.90
22442;DHT22;11388;54.456;9.752;2023-05-23T15:38:08;15.30;99.90
22442;DHT22;11388;54.456;9.752;2023-05-23T15:40:40;15.20;99.90
22442;DHT22;11388;54.456;9.752;2023-05-23T15:43:06;15.20;99.90
22442;DHT22;11388;54.456;9.752;2023-05-23T15:45:36;15.00;99.90
22442;DHT22;11388;54.456;9.752;2023-05-23T15:48:24;14.80;99.90
22442;DHT22;11388;54.456;9.752;2023-05-23T18:00:22;12.60;99.90
22442;DHT22;11388;54.456;9.752;2023-05-23T18:02:47;12.60;99.90
22442;DHT22;11388;54.456;9.752;2023-05-23T18:05:16;12.60;99.90
22442;DHT22;11388;54.456;9.752;2023-05-23T18:36:35;12.30;99.90
22442;DHT22;11388;54.456;9.752;2023-05-23T18:39:04;12.20;99.90
22442;DHT22;11388;54.456;9.752;2023-05-23T18:41:31;12.10;99.90
22442;DHT22;11388;54.456;9.752;2023-05-23T18:43:57;12.10;99.90
22442;DHT22;11388;54.456;9.752;2023-05-23T18:46:22;12.20;99.90
22442;DHT22;11388;54.456;9.752;2023-05-23T18:48:50;12.10;99.90
22442;DHT22;11388;54.456;9.752;2023-05-23T18:51:17;12.20;99.90
22442;DHT22;11388;54.456;9.752;2023-05-23T18:53:43;12.10;99.90
22442;DHT22;11388;54.456;9.752;2023-05-23T18:56:09;12.10;99.90
22442;DHT22;11388;54.456;9.752;2023-05-23T18:58:35;12.10;99.90
22442;DHT22;11388;54.456;9.752;2023-05-23T19:01:01;12.00;99.90
22442;DHT22;11388;54.456;9.752;2023-05-23T19:03:28;12.10;99.90
22442;DHT22;11388;54.456;9.752;2023-05-23T19:05:54;12.00;99.90
22442;DHT22;11388;54.456;9.752;2023-05-23T19:08:29;12.10;99.90
22442;DHT22;11388;54.456;9.752;2023-05-23T19:10:56;12.10;99.90
22442;DHT22;11388;54.456;9.752;2023-05-23T19:13:21;12.20;99.90
22442;DHT22;11388;54.456;9.752;2023-05-23T19:15:47;12.10;99.90
22442;DHT22;11388;54.456;9.752;2023-05-23T19:18:16;12.10;99.90
22442;DHT22;11388;54.456;9.752;2023-05-23T19:20:46;12.10;99.90
22442;DHT22;11388;54.456;9.752;2023-05-23T19:23:18;12.10;99.90
22442;DHT22;11388;54.456;9.752;2023-05-23T19:25:44;12.00;99.90
22442;DHT22;11388;54.456;9.752;2023-05-23T19:28:10;12.10;99.90
22442;DHT22;11388;54.456;9.752;2023-05-23T19:30:35;12.10;99.90
22442;DHT22;11388;54.456;9.752;2023-05-23T19:33:03;12.10;99.90
22442;DHT22;11388;54.456;9.752;2023-05-23T19:35:29;12.00;99.90
22442;DHT22;11388;54.456;9.752;2023-05-23T19:37:55;11.90;99.90
22442;DHT22;11388;54.456;9.752;2023-05-23T19:40:23;12.00;99.90
22442;DHT22;11388;54.456;9.752;2023-05-23T19:42:49;12.00;99.90
22442;DHT22;11388;54.456;9.752;2023-05-23T19:45:16;12.00;99.90
22442;DHT22;11388;54.456;9.752;2023-05-23T19:47:42;12.00;99.90
22442;DHT22;11388;54.456;9.752;2023-05-23T19:50:09;12.00;99.90
22442;DHT22;11388;54.456;9.752;2023-05-23T19:52:39;12.00;99.90
22442;DHT22;11388;54.456;9.752;2023-05-23T19:55:06;12.00;99.90
22442;DHT22;11388;54.456;9.752;2023-05-23T19:57:32;12.00;99.90
22442;DHT22;11388;54.456;9.752;2023-05-23T19:59:58;12.10;99.90
22442;DHT22;11388;54.456;9.752;2023-05-23T20:02:24;12.00;99.90
22442;DHT22;11388;54.456;9.752;2023-05-23T20:04:53;11.80;99.90
22442;DHT22;11388;54.456;9.752;2023-05-23T20:07:21;11.90;99.90
22442;DHT22;11388;54.456;9.752;2023-05-23T20:09:47;11.90;99.90
22442;DHT22;11388;54.456;9.752;2023-05-23T20:16:05;12.10;99.90
22442;DHT22;11388;54.456;9.752;2023-05-23T22:02:45;11.70;99.90
